sensor_id;sensor_type;location;lat;lon;timestamp;temperature;humidity
20284;DHT22;10301;50.832;4.080;2022-09-02T00:00:55;18.10;99.90
20284;DHT22;10301;50.832;4.080;2022-09-02T00:03:33;17.90;99.90
20284;DHT22;10301;50.832;4.080;2022-09-02T00:06:00;17.80;99.90
20284;DHT22;10301;50.832;4.080;2022-09-02T00:08:27;17.50;99.90
20284;DHT22;10301;50.832;4.080;2022-09-02T00:10:53;17.60;99.90
20284;DHT22;10301;50.832;4.080;2022-09-02T00:13:19;17.50;99.90
20284;DHT22;10301;50.832;4.080;2022-09-02T00:15:46;17.50;99.90
20284;DHT22;10301;50.832;4.080;2022-09-02T00:18:13;17.40;99.90
20284;DHT22;10301;50.832;4.080;2022-09-02T00:20:41;17.50;99.90
20284;DHT22;10301;50.832;4.080;2022-09-02T00:23:08;17.50;99.90
20284;DHT22;10301;50.832;4.080;2022-09-02T00:25:37;17.40;99.90
20284;DHT22;10301;50.832;4.080;2022-09-02T00:28:04;17.40;99.90
20284;DHT22;10301;50.832;4.080;2022-09-02T00:30:33;17.40;99.90
20284;DHT22;10301;50.832;4.080;2022-09-02T00:32:59;17.30;99.90
20284;DHT22;10301;50.832;4.080;2022-09-02T00:35:25;17.40;99.90
20284;DHT22;10301;50.832;4.080;2022-09-02T00:37:50;17.40;99.90
20284;DHT22;10301;50.832;4.080;2022-09-02T00:40:16;17.40;99.90
20284;DHT22;10301;50.832;4.080;2022-09-02T00:42:42;17.40;99.90
20284;DHT22;10301;50.832;4.080;2022-09-02T00:45:09;17.40;99.90
20284;DHT22;10301;50.832;4.080;2022-09-02T00:47:35;17.40;99.90
20284;DHT22;10301;50.832;4.080;2022-09-02T00:50:05;17.50;99.90
20284;DHT22;10301;50.832;4.080;2022-09-02T00:52:42;17.20;99.90
20284;DHT22;10301;50.832;4.080;2022-09-02T00:55:19;17.20;99.90
20284;DHT22;10301;50.832;4.080;2022-09-02T00:57:49;17.00;99.90
20284;DHT22;10301;50.832;4.080;2022-09-02T01:02:52;17.00;99.90
20284;DHT22;10301;50.832;4.080;2022-09-02T01:05:21;17.10;99.90
20284;DHT22;10301;50.832;4.080;2022-09-02T01:07:48;17.20;99.90
20284;DHT22;10301;50.832;4.080;2022-09-02T01:10:25;17.00;99.90
20284;DHT22;10301;50.832;4.080;2022-09-02T01:12:58;17.00;99.90
20284;DHT22;10301;50.832;4.080;2022-09-02T01:15:25;17.00;99.90
20284;DHT22;10301;50.832;4.080;2022-09-02T01:17:52;16.90;99.90
20284;DHT22;10301;50.832;4.080;2022-09-02T01:20:24;16.80;99.90
20284;DHT22;10301;50.832;4.080;2022-09-02T01:22:51;16.70;99.90
20284;DHT22;10301;50.832;4.080;2022-09-02T01:25:19;16.50;99.90
20284;DHT22;10301;50.832;4.080;2022-09-02T01:27:45;16.40;99.90
20284;DHT22;10301;50.832;4.080;2022-09-02T01:30:16;16.40;99.90
20284;DHT22;10301;50.832;4.080;2022-09-02T01:32:42;16.80;99.90
20284;DHT22;10301;50.832;4.080;2022-09-02T01:35:08;16.80;99.90
20284;DHT22;10301;50.832;4.080;2022-09-02T01:37:35;16.70;99.90
20284;DHT22;10301;50.832;4.080;2022-09-02T01:40:03;16.60;99.90
20284;DHT22;10301;50.832;4.080;2022-09-02T01:42:29;16.60;99.90
20284;DHT22;10301;50.832;4.080;2022-09-02T01:44:55;16.80;99.90
20284;DHT22;10301;50.832;4.080;2022-09-02T01:47:24;16.50;99.90
20284;DHT22;10301;50.832;4.080;2022-09-02T01:49:50;16.50;99.90
20284;DHT22;10301;50.832;4.080;2022-09-02T01:52:18;16.40;99.90
20284;DHT22;10301;50.832;4.080;2022-09-02T01:54:44;16.50;99.90
20284;DHT22;10301;50.832;4.080;2022-09-02T01:57:11;16.50;99.90
20284;DHT22;10301;50.832;4.080;2022-09-02T01:59:37;16.50;99.90
20284;DHT22;10301;50.832;4.080;2022-09-02T02:02:03;16.60;99.90
20284;DHT22;10301;50.832;4.080;2022-09-02T02:04:29;16.70;99.90
20284;DHT22;10301;50.832;4.080;2022-09-02T02:06:55;16.70;99.90
20284;DHT22;10301;50.832;4.080;2022-09-02T02:09:21;16.50;99.90
20284;DHT22;10301;50.832;4.080;2022-09-02T02:11:47;16.40;99.90
20284;DHT22;10301;50.832;4.080;2022-09-02T02:14:13;16.30;99.90
20284;DHT22;10301;50.832;4.080;2022-09-02T02:16:39;16.40;99.90
20284;DHT22;10301;50.832;4.080;2022-09-02T02:19:05;16.50;99.90
20284;DHT22;10301;50.832;4.080;2022-09-02T02:21:30;16.60;99.90
20284;DHT22;10301;50.832;4.080;2022-09-02T02:23:57;16.60;99.90
20284;DHT22;10301;50.832;4.080;2022-09-02T02:26:26;16.40;99.90
20284;DHT22;10301;50.832;4.080;2022-09-02T02:28:52;16.40;99.90
20284;DHT22;10301;50.832;4.080;2022-09-02T02:31:17;16.20;99.90
20284;DHT22;10301;50.832;4.080;2022-09-02T02:33:43;16.20;99.90
20284;DHT22;10301;50.832;4.080;2022-09-02T02:36:09;16.20;99.90
20284;DHT22;10301;50.832;4.080;2022-09-02T02:38:36;16.20;99.90
20284;DHT22;10301;50.832;4.080;2022-09-02T02:41:02;16.10;99.90
20284;DHT22;10301;50.832;4.080;2022-09-02T02:43:34;16.10;99.90
20284;DHT22;10301;50.832;4.080;2022-09-02T02:46:00;16.20;99.90
20284;DHT22;10301;50.832;4.080;2022-09-02T02:48:26;16.10;99.90
20284;DHT22;10301;50.832;4.080;2022-09-02T02:50:51;16.10;99.90
20284;DHT22;10301;50.832;4.080;2022-09-02T02:53:18;16.20;99.90
20284;DHT22;10301;50.832;4.080;2022-09-02T02:55:44;16.20;99.90
20284;DHT22;10301;50.832;4.080;2022-09-02T02:58:09;16.20;99.90
20284;DHT22;10301;50.832;4.080;2022-09-02T03:00:35;16.40;99.90
20284;DHT22;10301;50.832;4.080;2022-09-02T03:03:07;16.30;99.90
20284;DHT22;10301;50.832;4.080;2022-09-02T03:05:34;16.20;99.90
20284;DHT22;10301;50.832;4.080;2022-09-02T03:08:03;16.30;99.90
20284;DHT22;10301;50.832;4.080;2022-09-02T03:10:29;16.50;99.90
20284;DHT22;10301;50.832;4.080;2022-09-02T03:12:57;16.50;99.90
20284;DHT22;10301;50.832;4.080;2022-09-02T03:15:23;16.50;99.90
20284;DHT22;10301;50.832;4.080;2022-09-02T03:17:49;16.50;99.90
20284;DHT22;10301;50.832;4.080;2022-09-02T03:20:16;16.30;99.90
20284;DHT22;10301;50.832;4.080;2022-09-02T03:22:43;16.10;99.90
20284;DHT22;10301;50.832;4.080;2022-09-02T03:25:12;16.20;99.90
20284;DHT22;10301;50.832;4.080;2022-09-02T03:27:39;16.20;99.90
20284;DHT22;10301;50.832;4.080;2022-09-02T03:30:07;16.20;99.90
20284;DHT22;10301;50.832;4.080;2022-09-02T03:32:34;16.30;99.90
20284;DHT22;10301;50.832;4.080;2022-09-02T03:35:01;16.30;99.90
20284;DHT22;10301;50.832;4.080;2022-09-02T03:37:27;16.10;99.90
20284;DHT22;10301;50.832;4.080;2022-09-02T03:39:53;16.00;99.90
20284;DHT22;10301;50.832;4.080;2022-09-02T03:42:19;16.10;99.90
20284;DHT22;10301;50.832;4.080;2022-09-02T03:44:45;15.90;99.90
20284;DHT22;10301;50.832;4.080;2022-09-02T03:47:10;16.00;99.90
20284;DHT22;10301;50.832;4.080;2022-09-02T03:49:38;16.10;99.90
20284;DHT22;10301;50.832;4.080;2022-09-02T03:52:04;16.20;99.90
20284;DHT22;10301;50.832;4.080;2022-09-02T03:54:29;16.30;99.90
20284;DHT22;10301;50.832;4.080;2022-09-02T03:56:55;16.30;99.90
20284;DHT22;10301;50.832;4.080;2022-09-02T03:59:21;16.20;99.90
20284;DHT22;10301;50.832;4.080;2022-09-02T04:01:46;16.20;99.90
20284;DHT22;10301;50.832;4.080;2022-09-02T04:04:12;16.10;99.90
20284;DHT22;10301;50.832;4.080;2022-09-02T04:06:38;16.20;99.90
20284;DHT22;10301;50.832;4.080;2022-09-02T04:09:05;16.20;99.90
20284;DHT22;10301;50.832;4.080;2022-09-02T04:11:31;16.10;99.90
20284;DHT22;10301;50.832;4.080;2022-09-02T04:13:57;16.00;99.90
20284;DHT22;10301;50.832;4.080;2022-09-02T04:16:24;15.90;99.90
20284;DHT22;10301;50.832;4.080;2022-09-02T04:18:57;15.90;99.90
20284;DHT22;10301;50.832;4.080;2022-09-02T04:21:24;16.00;99.90
20284;DHT22;10301;50.832;4.080;2022-09-02T04:23:50;15.90;99.90
20284;DHT22;10301;50.832;4.080;2022-09-02T04:26:18;15.70;99.90
20284;DHT22;10301;50.832;4.080;2022-09-02T04:28:45;15.80;99.90
20284;DHT22;10301;50.832;4.080;2022-09-02T04:31:13;15.80;99.90
20284;DHT22;10301;50.832;4.080;2022-09-02T04:33:39;15.90;99.90
20284;DHT22;10301;50.832;4.080;2022-09-02T04:36:08;16.00;99.90
20284;DHT22;10301;50.832;4.080;2022-09-02T04:38:34;16.00;99.90
20284;DHT22;10301;50.832;4.080;2022-09-02T04:41:08;15.80;99.90
20284;DHT22;10301;50.832;4.080;2022-09-02T04:43:34;15.70;99.90
20284;DHT22;10301;50.832;4.080;2022-09-02T04:46:03;15.70;99.90
20284;DHT22;10301;50.832;4.080;2022-09-02T04:48:29;15.80;99.90
20284;DHT22;10301;50.832;4.080;2022-09-02T04:50:55;15.80;99.90
20284;DHT22;10301;50.832;4.080;2022-09-02T04:53:21;15.90;99.90
20284;DHT22;10301;50.832;4.080;2022-09-02T04:55:46;16.10;99.90
20284;DHT22;10301;50.832;4.080;2022-09-02T04:58:13;16.00;99.90
20284;DHT22;10301;50.832;4.080;2022-09-02T05:00:40;16.20;99.90
20284;DHT22;10301;50.832;4.080;2022-09-02T05:03:06;16.30;99.90
20284;DHT22;10301;50.832;4.080;2022-09-02T05:05:33;16.30;99.90
20284;DHT22;10301;50.832;4.080;2022-09-02T05:07:59;16.20;99.90
20284;DHT22;10301;50.832;4.080;2022-09-02T05:10:26;16.30;99.90
20284;DHT22;10301;50.832;4.080;2022-09-02T05:12:53;16.30;99.90
20284;DHT22;10301;50.832;4.080;2022-09-02T05:15:19;16.30;99.90
20284;DHT22;10301;50.832;4.080;2022-09-02T05:17:45;16.30;99.90
20284;DHT22;10301;50.832;4.080;2022-09-02T05:20:11;16.10;99.90
20284;DHT22;10301;50.832;4.080;2022-09-02T05:22:37;16.30;99.90
20284;DHT22;10301;50.832;4.080;2022-09-02T05:25:06;16.30;99.90
20284;DHT22;10301;50.832;4.080;2022-09-02T05:27:34;16.40;99.90
20284;DHT22;10301;50.832;4.080;2022-09-02T05:30:00;16.50;99.90
20284;DHT22;10301;50.832;4.080;2022-09-02T05:32:26;16.60;99.90
20284;DHT22;10301;50.832;4.080;2022-09-02T05:34:53;16.50;99.90
20284;DHT22;10301;50.832;4.080;2022-09-02T05:37:19;16.50;99.90
20284;DHT22;10301;50.832;4.080;2022-09-02T05:39:45;16.50;99.90
20284;DHT22;10301;50.832;4.080;2022-09-02T05:42:10;16.40;99.90
20284;DHT22;10301;50.832;4.080;2022-09-02T05:44:36;16.50;99.90
20284;DHT22;10301;50.832;4.080;2022-09-02T05:47:03;16.60;99.90
20284;DHT22;10301;50.832;4.080;2022-09-02T05:49:29;16.70;99.90
20284;DHT22;10301;50.832;4.080;2022-09-02T05:51:57;16.90;99.90
20284;DHT22;10301;50.832;4.080;2022-09-02T05:54:29;16.90;99.90
20284;DHT22;10301;50.832;4.080;2022-09-02T05:57:00;17.00;99.90
20284;DHT22;10301;50.832;4.080;2022-09-02T05:59:28;17.10;99.90
20284;DHT22;10301;50.832;4.080;2022-09-02T06:01:54;17.20;99.90
20284;DHT22;10301;50.832;4.080;2022-09-02T06:04:21;17.20;99.90
20284;DHT22;10301;50.832;4.080;2022-09-02T06:06:48;17.20;99.90
20284;DHT22;10301;50.832;4.080;2022-09-02T06:09:16;17.30;99.90
20284;DHT22;10301;50.832;4.080;2022-09-02T06:11:43;17.30;99.90
20284;DHT22;10301;50.832;4.080;2022-09-02T06:14:10;17.30;99.90
20284;DHT22;10301;50.832;4.080;2022-09-02T06:16:40;17.40;99.90
20284;DHT22;10301;50.832;4.080;2022-09-02T06:19:06;17.40;99.90
20284;DHT22;10301;50.832;4.080;2022-09-02T06:21:32;17.50;99.90
20284;DHT22;10301;50.832;4.080;2022-09-02T06:23:59;17.50;99.90
20284;DHT22;10301;50.832;4.080;2022-09-02T06:26:25;17.50;99.90
20284;DHT22;10301;50.832;4.080;2022-09-02T06:28:51;17.60;99.90
20284;DHT22;10301;50.832;4.080;2022-09-02T06:31:19;17.70;99.90
20284;DHT22;10301;50.832;4.080;2022-09-02T06:33:46;17.90;99.90
20284;DHT22;10301;50.832;4.080;2022-09-02T06:36:16;18.00;99.90
20284;DHT22;10301;50.832;4.080;2022-09-02T06:38:44;18.10;99.90
20284;DHT22;10301;50.832;4.080;2022-09-02T06:41:12;18.20;99.90
20284;DHT22;10301;50.832;4.080;2022-09-02T06:43:38;18.40;99.90
20284;DHT22;10301;50.832;4.080;2022-09-02T06:46:04;18.50;99.90
20284;DHT22;10301;50.832;4.080;2022-09-02T06:48:30;18.50;99.90
20284;DHT22;10301;50.832;4.080;2022-09-02T06:50:56;18.60;99.90
20284;DHT22;10301;50.832;4.080;2022-09-02T06:53:22;18.70;99.90
20284;DHT22;10301;50.832;4.080;2022-09-02T06:55:49;18.90;99.90
20284;DHT22;10301;50.832;4.080;2022-09-02T06:58:15;19.10;99.90
20284;DHT22;10301;50.832;4.080;2022-09-02T07:00:41;19.20;99.90
20284;DHT22;10301;50.832;4.080;2022-09-02T07:03:08;19.30;99.90
20284;DHT22;10301;50.832;4.080;2022-09-02T07:06:04;19.40;99.90
20284;DHT22;10301;50.832;4.080;2022-09-02T07:08:35;19.50;99.90
20284;DHT22;10301;50.832;4.080;2022-09-02T07:11:01;19.70;99.90
20284;DHT22;10301;50.832;4.080;2022-09-02T07:13:26;19.90;99.90
20284;DHT22;10301;50.832;4.080;2022-09-02T07:15:52;20.00;99.90
20284;DHT22;10301;50.832;4.080;2022-09-02T07:18:17;19.90;99.90
20284;DHT22;10301;50.832;4.080;2022-09-02T07:20:44;20.10;99.90
20284;DHT22;10301;50.832;4.080;2022-09-02T07:23:10;20.30;99.90
20284;DHT22;10301;50.832;4.080;2022-09-02T07:25:38;20.40;99.90
20284;DHT22;10301;50.832;4.080;2022-09-02T07:28:05;20.40;99.90
20284;DHT22;10301;50.832;4.080;2022-09-02T07:30:31;20.50;99.90
20284;DHT22;10301;50.832;4.080;2022-09-02T07:32:57;20.70;99.90
20284;DHT22;10301;50.832;4.080;2022-09-02T07:35:23;20.70;99.90
20284;DHT22;10301;50.832;4.080;2022-09-02T07:37:49;20.70;99.90
20284;DHT22;10301;50.832;4.080;2022-09-02T07:40:15;20.60;99.90
20284;DHT22;10301;50.832;4.080;2022-09-02T07:42:42;20.70;99.90
20284;DHT22;10301;50.832;4.080;2022-09-02T07:45:09;20.90;99.90
20284;DHT22;10301;50.832;4.080;2022-09-02T07:47:35;20.90;99.90
20284;DHT22;10301;50.832;4.080;2022-09-02T07:50:01;20.90;99.90
20284;DHT22;10301;50.832;4.080;2022-09-02T07:52:26;20.90;99.90
20284;DHT22;10301;50.832;4.080;2022-09-02T07:54:52;20.90;99.90
20284;DHT22;10301;50.832;4.080;2022-09-02T07:57:18;21.20;99.90
20284;DHT22;10301;50.832;4.080;2022-09-02T07:59:44;21.30;99.90
20284;DHT22;10301;50.832;4.080;2022-09-02T08:02:12;21.30;99.90
20284;DHT22;10301;50.832;4.080;2022-09-02T08:04:39;21.40;99.90
20284;DHT22;10301;50.832;4.080;2022-09-02T08:07:04;21.60;99.90
20284;DHT22;10301;50.832;4.080;2022-09-02T08:09:30;21.70;99.90
20284;DHT22;10301;50.832;4.080;2022-09-02T08:11:56;21.70;99.90
20284;DHT22;10301;50.832;4.080;2022-09-02T08:14:25;21.80;99.90
20284;DHT22;10301;50.832;4.080;2022-09-02T08:16:52;21.90;99.90
20284;DHT22;10301;50.832;4.080;2022-09-02T08:19:18;22.10;99.90
20284;DHT22;10301;50.832;4.080;2022-09-02T08:21:44;22.30;99.90
20284;DHT22;10301;50.832;4.080;2022-09-02T08:24:10;22.20;99.90
20284;DHT22;10301;50.832;4.080;2022-09-02T08:26:36;22.20;99.90
20284;DHT22;10301;50.832;4.080;2022-09-02T08:29:06;22.20;99.90
20284;DHT22;10301;50.832;4.080;2022-09-02T08:31:32;22.20;99.90
20284;DHT22;10301;50.832;4.080;2022-09-02T08:33:59;22.30;99.90
20284;DHT22;10301;50.832;4.080;2022-09-02T08:36:24;22.30;99.90
20284;DHT22;10301;50.832;4.080;2022-09-02T08:38:51;22.30;99.90
20284;DHT22;10301;50.832;4.080;2022-09-02T08:41:20;22.30;99.90
20284;DHT22;10301;50.832;4.080;2022-09-02T08:43:46;22.60;99.90
20284;DHT22;10301;50.832;4.080;2022-09-02T08:46:16;22.60;99.90
20284;DHT22;10301;50.832;4.080;2022-09-02T08:48:55;22.60;99.90
20284;DHT22;10301;50.832;4.080;2022-09-02T08:51:33;22.60;99.90
20284;DHT22;10301;50.832;4.080;2022-09-02T08:56:52;23.00;99.90
20284;DHT22;10301;50.832;4.080;2022-09-02T08:59:21;23.10;99.90
20284;DHT22;10301;50.832;4.080;2022-09-02T09:01:52;23.20;99.90
20284;DHT22;10301;50.832;4.080;2022-09-02T09:04:27;23.50;99.90
20284;DHT22;10301;50.832;4.080;2022-09-02T09:09:55;23.30;99.90
20284;DHT22;10301;50.832;4.080;2022-09-02T09:12:50;23.30;99.90
20284;DHT22;10301;50.832;4.080;2022-09-02T09:18:07;23.60;99.90
20284;DHT22;10301;50.832;4.080;2022-09-02T09:20:38;23.40;99.90
20284;DHT22;10301;50.832;4.080;2022-09-02T09:23:29;23.50;99.90
20284;DHT22;10301;50.832;4.080;2022-09-02T09:26:16;23.50;99.90
20284;DHT22;10301;50.832;4.080;2022-09-02T09:28:47;23.50;99.90
20284;DHT22;10301;50.832;4.080;2022-09-02T09:31:17;23.50;99.90
20284;DHT22;10301;50.832;4.080;2022-09-02T09:39:34;24.20;99.90
20284;DHT22;10301;50.832;4.080;2022-09-02T09:42:02;24.30;99.90
20284;DHT22;10301;50.832;4.080;2022-09-02T09:44:46;24.30;99.90
20284;DHT22;10301;50.832;4.080;2022-09-02T09:47:23;24.40;99.90
20284;DHT22;10301;50.832;4.080;2022-09-02T09:50:10;24.20;99.90
20284;DHT22;10301;50.832;4.080;2022-09-02T09:52:36;24.40;99.90
20284;DHT22;10301;50.832;4.080;2022-09-02T09:55:17;24.50;99.90
20284;DHT22;10301;50.832;4.080;2022-09-02T09:57:45;24.70;99.90
20284;DHT22;10301;50.832;4.080;2022-09-02T10:00:27;24.80;99.90
20284;DHT22;10301;50.832;4.080;2022-09-02T10:02:56;24.80;99.90
20284;DHT22;10301;50.832;4.080;2022-09-02T10:08:03;24.80;99.90
20284;DHT22;10301;50.832;4.080;2022-09-02T10:10:31;25.00;99.90
20284;DHT22;10301;50.832;4.080;2022-09-02T10:13:00;24.80;99.90
20284;DHT22;10301;50.832;4.080;2022-09-02T10:24:06;25.10;99.90
20284;DHT22;10301;50.832;4.080;2022-09-02T10:26:42;25.10;99.90
20284;DHT22;10301;50.832;4.080;2022-09-02T10:31:47;25.20;99.90
20284;DHT22;10301;50.832;4.080;2022-09-02T10:42:55;25.10;99.90
20284;DHT22;10301;50.832;4.080;2022-09-02T10:45:45;25.30;99.90
20284;DHT22;10301;50.832;4.080;2022-09-02T10:51:28;25.70;99.90
20284;DHT22;10301;50.832;4.080;2022-09-02T10:57:03;26.00;99.90
20284;DHT22;10301;50.832;4.080;2022-09-02T10:59:43;26.10;99.90
20284;DHT22;10301;50.832;4.080;2022-09-02T11:02:20;26.10;99.90
20284;DHT22;10301;50.832;4.080;2022-09-02T11:04:54;26.00;99.90
20284;DHT22;10301;50.832;4.080;2022-09-02T11:07:29;25.90;99.90
20284;DHT22;10301;50.832;4.080;2022-09-02T11:09:59;26.00;99.90
20284;DHT22;10301;50.832;4.080;2022-09-02T11:12:37;26.10;99.90
20284;DHT22;10301;50.832;4.080;2022-09-02T11:15:21;26.10;99.90
20284;DHT22;10301;50.832;4.080;2022-09-02T11:18:16;26.10;99.90
20284;DHT22;10301;50.832;4.080;2022-09-02T11:23:43;26.40;99.90
20284;DHT22;10301;50.832;4.080;2022-09-02T11:26:16;26.50;99.90
20284;DHT22;10301;50.832;4.080;2022-09-02T11:28:47;26.60;99.90
20284;DHT22;10301;50.832;4.080;2022-09-02T11:31:28;26.70;99.90
20284;DHT22;10301;50.832;4.080;2022-09-02T11:34:06;26.60;99.90
20284;DHT22;10301;50.832;4.080;2022-09-02T11:36:40;26.70;99.90
20284;DHT22;10301;50.832;4.080;2022-09-02T11:39:19;26.80;99.90
20284;DHT22;10301;50.832;4.080;2022-09-02T11:41:54;27.10;99.90
20284;DHT22;10301;50.832;4.080;2022-09-02T11:44:48;27.20;99.90
20284;DHT22;10301;50.832;4.080;2022-09-02T11:47:35;27.40;99.90
20284;DHT22;10301;50.832;4.080;2022-09-02T11:55:34;27.90;99.90
20284;DHT22;10301;50.832;4.080;2022-09-02T11:58:02;27.80;99.90
20284;DHT22;10301;50.832;4.080;2022-09-02T12:08:04;28.30;99.80
20284;DHT22;10301;50.832;4.080;2022-09-02T12:13:17;28.70;99.10
20284;DHT22;10301;50.832;4.080;2022-09-02T12:21:19;28.00;98.70
20284;DHT22;10301;50.832;4.080;2022-09-02T12:26:16;28.30;98.50
20284;DHT22;10301;50.832;4.080;2022-09-02T12:28:43;28.30;97.50
20284;DHT22;10301;50.832;4.080;2022-09-02T12:33:52;28.80;97.00
20284;DHT22;10301;50.832;4.080;2022-09-02T12:47:57;28.70;94.60
20284;DHT22;10301;50.832;4.080;2022-09-02T12:50:03;28.60;94.90
20284;DHT22;10301;50.832;4.080;2022-09-02T12:57:43;29.00;94.30
20284;DHT22;10301;50.832;4.080;2022-09-02T13:00:14;28.90;93.80
20284;DHT22;10301;50.832;4.080;2022-09-02T13:03:02;28.90;93.70
20284;DHT22;10301;50.832;4.080;2022-09-02T13:06:02;29.20;93.40
20284;DHT22;10301;50.832;4.080;2022-09-02T13:22:34;29.80;91.10
20284;DHT22;10301;50.832;4.080;2022-09-02T13:28:23;30.30;88.50
20284;DHT22;10301;50.832;4.080;2022-09-02T13:33:40;29.90;88.30
20284;DHT22;10301;50.832;4.080;2022-09-02T13:36:08;30.30;88.20
20284;DHT22;10301;50.832;4.080;2022-09-02T13:38:33;30.20;88.30
20284;DHT22;10301;50.832;4.080;2022-09-02T13:41:00;30.30;87.50
20284;DHT22;10301;50.832;4.080;2022-09-02T13:43:27;29.90;87.50
20284;DHT22;10301;50.832;4.080;2022-09-02T13:46:00;29.10;90.20
20284;DHT22;10301;50.832;4.080;2022-09-02T13:48:31;29.00;90.00
20284;DHT22;10301;50.832;4.080;2022-09-02T13:51:05;28.90;90.00
20284;DHT22;10301;50.832;4.080;2022-09-02T13:53:38;28.80;89.00
20284;DHT22;10301;50.832;4.080;2022-09-02T13:56:07;28.50;90.10
20284;DHT22;10301;50.832;4.080;2022-09-02T13:58:35;28.10;90.70
20284;DHT22;10301;50.832;4.080;2022-09-02T14:01:30;27.80;91.00
20284;DHT22;10301;50.832;4.080;2022-09-02T14:03:58;27.50;92.10
20284;DHT22;10301;50.832;4.080;2022-09-02T14:06:33;27.70;91.90
20284;DHT22;10301;50.832;4.080;2022-09-02T14:09:05;28.10;91.20
20284;DHT22;10301;50.832;4.080;2022-09-02T14:11:37;28.20;90.40
20284;DHT22;10301;50.832;4.080;2022-09-02T14:14:04;28.30;90.70
20284;DHT22;10301;50.832;4.080;2022-09-02T14:16:35;28.50;90.00
20284;DHT22;10301;50.832;4.080;2022-09-02T14:19:09;28.80;88.90
20284;DHT22;10301;50.832;4.080;2022-09-02T14:21:43;28.90;87.70
20284;DHT22;10301;50.832;4.080;2022-09-02T14:24:12;29.00;88.20
20284;DHT22;10301;50.832;4.080;2022-09-02T14:26:42;29.00;87.60
20284;DHT22;10301;50.832;4.080;2022-09-02T14:29:12;29.40;85.70
20284;DHT22;10301;50.832;4.080;2022-09-02T14:31:38;29.50;85.40
20284;DHT22;10301;50.832;4.080;2022-09-02T14:34:03;29.70;84.00
20284;DHT22;10301;50.832;4.080;2022-09-02T14:36:49;30.00;82.90
20284;DHT22;10301;50.832;4.080;2022-09-02T14:39:16;30.20;82.70
20284;DHT22;10301;50.832;4.080;2022-09-02T14:41:53;30.10;82.80
20284;DHT22;10301;50.832;4.080;2022-09-02T14:44:29;30.10;81.40
20284;DHT22;10301;50.832;4.080;2022-09-02T14:47:05;30.00;81.30
20284;DHT22;10301;50.832;4.080;2022-09-02T14:49:38;30.00;80.90
20284;DHT22;10301;50.832;4.080;2022-09-02T14:52:27;30.00;81.40
20284;DHT22;10301;50.832;4.080;2022-09-02T14:54:55;30.10;80.00
20284;DHT22;10301;50.832;4.080;2022-09-02T14:57:29;29.90;80.90
20284;DHT22;10301;50.832;4.080;2022-09-02T15:00:00;30.00;80.40
20284;DHT22;10301;50.832;4.080;2022-09-02T15:02:33;30.20;79.50
20284;DHT22;10301;50.832;4.080;2022-09-02T15:05:03;30.20;79.10
20284;DHT22;10301;50.832;4.080;2022-09-02T15:07:30;30.40;77.30
20284;DHT22;10301;50.832;4.080;2022-09-02T15:09:56;30.50;77.70
20284;DHT22;10301;50.832;4.080;2022-09-02T15:12:33;30.30;77.80
20284;DHT22;10301;50.832;4.080;2022-09-02T15:15:01;30.30;78.50
20284;DHT22;10301;50.832;4.080;2022-09-02T15:17:26;30.20;77.60
20284;DHT22;10301;50.832;4.080;2022-09-02T15:19:53;30.10;77.10
20284;DHT22;10301;50.832;4.080;2022-09-02T15:22:19;30.00;77.10
20284;DHT22;10301;50.832;4.080;2022-09-02T15:24:45;29.90;77.40
20284;DHT22;10301;50.832;4.080;2022-09-02T15:27:12;30.10;76.90
20284;DHT22;10301;50.832;4.080;2022-09-02T15:29:38;29.90;76.30
20284;DHT22;10301;50.832;4.080;2022-09-02T15:32:04;29.90;76.30
20284;DHT22;10301;50.832;4.080;2022-09-02T15:34:31;29.90;77.00
20284;DHT22;10301;50.832;4.080;2022-09-02T15:36:57;29.80;75.60
20284;DHT22;10301;50.832;4.080;2022-09-02T15:39:23;29.90;75.40
20284;DHT22;10301;50.832;4.080;2022-09-02T15:41:50;29.80;75.60
20284;DHT22;10301;50.832;4.080;2022-09-02T15:44:17;29.80;76.00
20284;DHT22;10301;50.832;4.080;2022-09-02T15:46:43;29.50;75.60
20284;DHT22;10301;50.832;4.080;2022-09-02T15:49:12;29.40;76.60
20284;DHT22;10301;50.832;4.080;2022-09-02T15:51:42;29.20;76.30
20284;DHT22;10301;50.832;4.080;2022-09-02T15:54:11;29.10;76.40
20284;DHT22;10301;50.832;4.080;2022-09-02T15:56:38;29.10;76.90
20284;DHT22;10301;50.832;4.080;2022-09-02T15:59:12;29.20;76.00
20284;DHT22;10301;50.832;4.080;2022-09-02T16:01:41;29.10;75.90
20284;DHT22;10301;50.832;4.080;2022-09-02T16:04:09;29.00;76.50
20284;DHT22;10301;50.832;4.080;2022-09-02T16:06:37;28.90;76.80
20284;DHT22;10301;50.832;4.080;2022-09-02T16:09:06;29.00;77.50
20284;DHT22;10301;50.832;4.080;2022-09-02T16:11:32;29.10;78.00
20284;DHT22;10301;50.832;4.080;2022-09-02T16:13:58;29.10;83.50
20284;DHT22;10301;50.832;4.080;2022-09-02T16:16:24;29.00;85.20
20284;DHT22;10301;50.832;4.080;2022-09-02T16:18:51;28.80;86.70
20284;DHT22;10301;50.832;4.080;2022-09-02T16:21:18;28.60;87.90
20284;DHT22;10301;50.832;4.080;2022-09-02T16:23:44;28.50;89.00
20284;DHT22;10301;50.832;4.080;2022-09-02T16:26:29;28.50;90.00
20284;DHT22;10301;50.832;4.080;2022-09-02T16:29:00;28.20;90.60
20284;DHT22;10301;50.832;4.080;2022-09-02T16:31:28;27.70;91.60
20284;DHT22;10301;50.832;4.080;2022-09-02T16:33:59;27.60;92.40
20284;DHT22;10301;50.832;4.080;2022-09-02T16:36:27;27.50;92.90
20284;DHT22;10301;50.832;4.080;2022-09-02T16:38:53;27.40;93.40
20284;DHT22;10301;50.832;4.080;2022-09-02T16:41:31;26.90;94.50
20284;DHT22;10301;50.832;4.080;2022-09-02T16:44:06;27.00;94.80
20284;DHT22;10301;50.832;4.080;2022-09-02T16:46:33;26.90;95.20
20284;DHT22;10301;50.832;4.080;2022-09-02T16:48:59;26.80;95.60
20284;DHT22;10301;50.832;4.080;2022-09-02T16:51:25;26.80;96.10
20284;DHT22;10301;50.832;4.080;2022-09-02T16:54:02;26.60;96.20
20284;DHT22;10301;50.832;4.080;2022-09-02T16:56:29;26.50;96.60
20284;DHT22;10301;50.832;4.080;2022-09-02T16:58:55;26.50;97.00
20284;DHT22;10301;50.832;4.080;2022-09-02T17:01:23;26.50;97.30
20284;DHT22;10301;50.832;4.080;2022-09-02T17:03:49;26.30;97.60
20284;DHT22;10301;50.832;4.080;2022-09-02T17:06:15;26.20;98.10
20284;DHT22;10301;50.832;4.080;2022-09-02T17:08:40;26.20;98.50
20284;DHT22;10301;50.832;4.080;2022-09-02T17:14:07;26.10;99.20
20284;DHT22;10301;50.832;4.080;2022-09-02T17:16:41;26.00;99.40
20284;DHT22;10301;50.832;4.080;2022-09-02T17:19:08;25.90;99.80
20284;DHT22;10301;50.832;4.080;2022-09-02T17:21:40;25.80;99.90
20284;DHT22;10301;50.832;4.080;2022-09-02T17:24:08;25.70;99.90
20284;DHT22;10301;50.832;4.080;2022-09-02T17:26:37;25.60;99.90
20284;DHT22;10301;50.832;4.080;2022-09-02T17:29:11;25.60;99.90
20284;DHT22;10301;50.832;4.080;2022-09-02T17:31:38;25.60;99.90
20284;DHT22;10301;50.832;4.080;2022-09-02T17:34:06;25.50;99.90
20284;DHT22;10301;50.832;4.080;2022-09-02T17:36:34;25.50;99.90